Ozona, Mississippi
Current Conditions -  °F | °C
As of 6:50 PM on Friday 19 Dec 2014 (Local Time) from KHSA Reporting Station
Overcast Overcast  
Wind Chill: 43°   Ceiling: 500
Heat Index: 48°   Visibility: 7mi
Dew Point: 45°   Wind: 12mph
Humidity: 87%   Direction: 60°ENE
Pressure: 30.09"   Gusts: 17mph
Location:  30.6922°N, 89.5187°W
Report Text: KHSA 200050Z 06010G15KT 7SM BKN005 OVC019 09/07 A3009
Loading
Personal Weather Stations






























Interactive Weather Map New forecast layout! Learn more

10-Day Weather Forecast

Advertisements
Track Severe Weather on mobile